createdAt,value
2023-04-24T00:00:36.913Z,99277.16
2023-04-24T00:03:04.131Z,99286.31
2023-04-24T00:05:30.753Z,99283.59
2023-04-24T00:07:57.179Z,99280.91
2023-04-24T00:10:23.649Z,99283.59
2023-04-24T00:12:50.104Z,99278.22
2023-04-24T00:15:16.616Z,99286.31
2023-04-24T00:17:42.995Z,99279.28
2023-04-24T00:20:11.255Z,99279.28
2023-04-24T00:22:37.624Z,99276.56
2023-04-24T00:25:04.218Z,99272.00
2023-04-24T00:27:30.973Z,99266.59
2023-04-24T00:29:57.348Z,99260.38
2023-04-24T00:32:23.745Z,99270.31
2023-04-24T00:34:50.259Z,99275.72
2023-04-24T00:37:16.706Z,99273.25
2023-04-24T00:39:43.966Z,99275.94
2023-04-24T00:42:10.918Z,99268.69
2023-04-24T00:44:37.388Z,99267.88
2023-04-24T00:47:04.077Z,99267.88
2023-04-24T00:49:30.501Z,99268.88
2023-04-24T00:51:57.750Z,99267.03
2023-04-24T00:54:24.110Z,99263.72
2023-04-24T00:57:04.377Z,99255.63
2023-04-24T00:59:31.276Z,99257.72
2023-04-24T01:01:59.137Z,99253.13
2023-04-24T01:04:26.010Z,99255.00
2023-04-24T01:06:53.549Z,99258.78
2023-04-24T01:09:22.132Z,99254.19
2023-04-24T01:11:48.479Z,99247.97
2023-04-24T01:14:17.372Z,99249.84
2023-04-24T01:16:43.763Z,99251.69
2023-04-24T01:19:11.304Z,99252.56
2023-04-24T01:21:38.975Z,99246.31
2023-04-24T01:24:06.958Z,99249.00
2023-04-24T01:26:33.778Z,99240.31
2023-04-24T01:29:00.194Z,99235.75
2023-04-24T01:31:26.994Z,99246.75
2023-04-24T01:33:53.673Z,99238.88
2023-04-24T01:36:21.895Z,99254.22
2023-04-24T01:38:48.240Z,99235.56
2023-04-24T01:41:14.633Z,99247.38
2023-04-24T01:43:41.321Z,99243.06
2023-04-24T01:46:07.954Z,99243.06
2023-04-24T01:48:34.594Z,99245.13
2023-04-24T01:51:00.973Z,99241.63
2023-04-24T01:53:27.373Z,99254.28
2023-04-24T01:55:53.939Z,99241.81
2023-04-24T01:58:20.573Z,99241.00
2023-04-24T02:00:46.953Z,99246.19
2023-04-24T02:03:13.466Z,99243.50
2023-04-24T02:05:39.915Z,99251.56
2023-04-24T02:08:06.393Z,99251.56
2023-04-24T02:10:32.711Z,99246.19
2023-04-24T02:13:00.537Z,99249.91
2023-04-24T02:15:27.064Z,99249.91
2023-04-24T02:17:53.430Z,99239.13
2023-04-24T02:20:19.845Z,99243.06
2023-04-24T02:22:46.319Z,99242.06
2023-04-24T02:25:12.721Z,99239.56
2023-04-24T02:27:39.086Z,99246.81
2023-04-24T02:30:06.226Z,99243.31
2023-04-24T02:32:32.562Z,99237.31
2023-04-24T02:34:58.943Z,99236.47
2023-04-24T02:37:25.502Z,99240.22
2023-04-24T02:39:57.264Z,99237.72
2023-04-24T02:42:23.607Z,99244.78
2023-04-24T02:44:51.624Z,99246.88
2023-04-24T02:47:18.094Z,99248.72
2023-04-24T02:49:44.651Z,99244.38
2023-04-24T02:52:11.597Z,99245.22
2023-04-24T02:54:37.965Z,99244.38
2023-04-24T02:57:04.365Z,99239.00
2023-04-24T02:59:30.895Z,99243.56
2023-04-24T03:01:57.215Z,99240.06
2023-04-24T03:04:24.076Z,99237.34
2023-04-24T03:06:52.711Z,99240.25
2023-04-24T03:09:19.603Z,99239.44
2023-04-24T03:11:45.972Z,99245.84
2023-04-24T03:14:12.335Z,99237.16
2023-04-24T03:16:38.891Z,99247.09
2023-04-24T03:19:05.334Z,99257.31
2023-04-24T03:21:31.694Z,99249.41
2023-04-24T03:23:58.039Z,99259.38
2023-04-24T03:26:27.060Z,99256.88
2023-04-24T03:28:53.518Z,99260.63
2023-04-24T03:31:22.086Z,99253.59
2023-04-24T03:33:48.527Z,99258.38
2023-04-24T03:36:14.877Z,99265.00
2023-04-24T03:38:41.220Z,99262.75
2023-04-24T03:41:07.576Z,99262.34
2023-04-24T03:43:35.441Z,99271.09
2023-04-24T03:46:02.333Z,99267.75
2023-04-24T03:48:28.754Z,99263.81
2023-04-24T03:50:55.122Z,99267.56
2023-04-24T03:53:21.462Z,99270.69
2023-04-24T03:55:47.921Z,99270.28
2023-04-24T03:58:16.985Z,99268.84
2023-04-24T04:00:45.415Z,99273.63
2023-04-24T04:03:11.974Z,99263.88
2023-04-24T04:05:38.533Z,99277.78
2023-04-24T04:08:04.921Z,99276.53
2023-04-24T04:10:31.687Z,99284.22
2023-04-24T04:12:58.057Z,99286.28
2023-04-24T04:15:24.453Z,99289.19
2023-04-24T04:17:50.894Z,99282.38
2023-04-24T04:20:17.416Z,99283.63
2023-04-24T04:22:44.659Z,99287.31
2023-04-24T04:25:13.409Z,99297.28
2023-04-24T04:27:42.419Z,99294.81
2023-04-24T04:30:10.561Z,99301.22
2023-04-24T04:32:37.013Z,99296.88
2023-04-24T04:35:04.102Z,99307.66
2023-04-24T04:37:34.353Z,99305.97
2023-04-24T04:40:01.423Z,99303.47
2023-04-24T04:42:30.313Z,99302.66
2023-04-24T04:44:58.396Z,99313.44
2023-04-24T04:47:25.141Z,99311.75
2023-04-24T04:49:54.635Z,99314.69
2023-04-24T04:52:21.497Z,99317.56
2023-04-24T04:54:47.847Z,99325.84
2023-04-24T04:57:14.312Z,99328.75
2023-04-24T04:59:42.306Z,99321.72
2023-04-24T05:02:09.053Z,99330.81
2023-04-24T05:04:35.783Z,99321.09
2023-04-24T05:07:02.355Z,99324.63
2023-04-24T05:09:30.251Z,99325.44
2023-04-24T05:11:57.051Z,99331.44
2023-04-24T05:14:23.582Z,99328.53
2023-04-24T05:16:50.026Z,99332.09
2023-04-24T05:19:16.644Z,99326.28
2023-04-24T05:21:43.191Z,99329.59
2023-04-24T05:24:09.585Z,99324.00
2023-04-24T05:26:36.582Z,99316.75
2023-04-24T05:29:03.533Z,99313.03
2023-04-24T05:31:30.015Z,99312.81
2023-04-24T05:33:56.386Z,99317.19
2023-04-24T05:36:22.784Z,99334.16
2023-04-24T05:38:49.109Z,99322.34
2023-04-24T05:41:15.998Z,99332.09
2023-04-24T05:43:42.334Z,99336.44
2023-04-24T05:46:08.687Z,99322.78
2023-04-24T05:48:35.025Z,99327.34
2023-04-24T05:51:01.526Z,99330.63
2023-04-24T05:53:27.923Z,99331.25
2023-04-24T05:55:54.297Z,99332.06
2023-04-24T05:58:20.671Z,99334.56
2023-04-24T06:00:47.666Z,99329.59
2023-04-24T06:03:14.387Z,99332.06
2023-04-24T06:05:40.979Z,99337.47
2023-04-24T06:08:07.731Z,99333.72
2023-04-24T06:10:34.109Z,99332.69
2023-04-24T06:13:01.437Z,99333.72
2023-04-24T06:15:31.874Z,99333.72
2023-04-24T06:17:58.534Z,99327.50
2023-04-24T06:20:25.434Z,99328.75
2023-04-24T06:22:51.766Z,99339.53
2023-04-24T06:25:18.211Z,99340.59
2023-04-24T06:27:44.635Z,99332.06
2023-04-24T06:30:11.352Z,99332.31
2023-04-24T06:32:37.688Z,99318.84
2023-04-24T06:35:05.399Z,99328.16
2023-04-24T06:37:33.100Z,99337.06
2023-04-24T06:39:59.461Z,99333.53
2023-04-24T06:42:25.988Z,99332.50
2023-04-24T06:44:54.444Z,99332.50
2023-04-24T06:47:21.035Z,99333.13
2023-04-24T06:49:47.352Z,99335.81
2023-04-24T06:52:13.856Z,99334.75
2023-04-24T06:54:40.293Z,99337.25
2023-04-24T06:57:12.517Z,99347.00
2023-04-24T06:59:39.058Z,99354.06
2023-04-24T07:02:05.963Z,99344.91
2023-04-24T07:04:32.777Z,99356.53
2023-04-24T07:07:06.970Z,99360.66
2023-04-24T07:09:33.327Z,99363.59
2023-04-24T07:12:02.252Z,99365.44
2023-04-24T07:14:28.625Z,99364.19
2023-04-24T07:17:57.063Z,99361.50
2023-04-24T07:20:23.688Z,99363.56
2023-04-24T07:22:50.453Z,99367.50
2023-04-24T07:25:17.019Z,99364.00
2023-04-24T07:27:49.587Z,99367.75
2023-04-24T07:30:16.158Z,99361.50
2023-04-24T07:32:42.596Z,99369.38
2023-04-24T07:35:10.760Z,99364.41
2023-04-24T07:37:41.485Z,99362.13
2023-04-24T07:40:08.648Z,99371.44
2023-04-24T07:42:37.935Z,99370.00
2023-04-24T07:45:04.784Z,99373.09
2023-04-24T07:47:31.702Z,99371.03
2023-04-24T07:49:58.090Z,99370.78
2023-04-24T07:52:25.087Z,99371.03
2023-04-24T07:54:59.224Z,99362.13
2023-04-24T07:57:26.250Z,99373.31
2023-04-24T07:59:55.454Z,99383.66
2023-04-24T08:02:27.135Z,99384.28
2023-04-24T08:04:55.267Z,99384.72
2023-04-24T08:07:22.090Z,99385.13
2023-04-24T08:09:48.522Z,99389.88
2023-04-24T08:12:15.250Z,99382.22
2023-04-24T08:14:41.697Z,99385.34
2023-04-24T08:17:08.359Z,99395.28
2023-04-24T08:19:34.733Z,99390.72
2023-04-24T08:22:01.670Z,99402.13
2023-04-24T08:24:28.020Z,99388.44
2023-04-24T08:26:55.033Z,99392.56
2023-04-24T08:29:22.057Z,99395.91
2023-04-24T08:31:48.498Z,99399.22
2023-04-24T08:34:24.274Z,99400.88
2023-04-24T08:36:51.158Z,99403.16
2023-04-24T08:39:18.392Z,99403.16
2023-04-24T08:41:46.270Z,99413.09
2023-04-24T08:44:15.237Z,99403.38
2023-04-24T08:46:41.922Z,99410.41
2023-04-24T08:49:08.404Z,99403.16
2023-04-24T08:51:35.014Z,99418.28
2023-04-24T08:54:04.857Z,99418.28
2023-04-24T08:56:40.134Z,99409.16
2023-04-24T08:59:07.732Z,99419.13
2023-04-24T09:01:35.987Z,99407.50
2023-04-24T09:04:05.079Z,99409.97
2023-04-24T09:07:10.128Z,99418.69
2023-04-24T09:09:38.225Z,99420.97
2023-04-24T09:12:04.782Z,99419.53
2023-04-24T09:14:37.153Z,99415.38
2023-04-24T09:17:03.849Z,99421.19
2023-04-24T09:19:30.306Z,99424.91
2023-04-24T09:21:57.295Z,99424.50
2023-04-24T09:24:23.820Z,99440.66
2023-04-24T09:27:02.531Z,99436.31
2023-04-24T09:29:29.764Z,99432.78
2023-04-24T09:31:56.530Z,99442.53
2023-04-24T09:34:25.074Z,99443.16
2023-04-24T09:37:04.569Z,99449.16
2023-04-24T09:39:30.895Z,99437.78
2023-04-24T09:42:07.813Z,99442.13
2023-04-24T09:44:35.457Z,99446.88
2023-04-24T09:47:01.806Z,99456.00
2023-04-24T09:49:34.230Z,99465.72
2023-04-24T09:52:07.820Z,99466.34
2023-04-24T09:54:34.204Z,99470.28
2023-04-24T09:57:03.499Z,99468.44
2023-04-24T09:59:30.601Z,99474.25
2023-04-24T10:01:58.632Z,99479.22
2023-04-24T10:04:28.149Z,99484.16
2023-04-24T10:06:57.368Z,99488.34
2023-04-24T10:09:25.974Z,99491.84
2023-04-24T10:11:54.316Z,99498.06
2023-04-24T10:14:23.126Z,99499.09
2023-04-24T10:16:50.972Z,99499.28
2023-04-24T10:19:19.719Z,99510.69
2023-04-24T10:21:49.474Z,99512.56
2023-04-24T10:24:17.585Z,99518.38
2023-04-24T10:26:45.515Z,99527.09
2023-04-24T10:29:13.681Z,99528.13
2023-04-24T10:31:40.885Z,99538.13
2023-04-24T10:34:07.863Z,99532.31
2023-04-24T10:36:35.982Z,99530.00
2023-04-24T10:39:07.467Z,99543.88
2023-04-24T10:41:33.860Z,99529.16
2023-04-24T10:44:14.246Z,99542.00
2023-04-24T10:46:45.455Z,99547.59
2023-04-24T10:49:12.298Z,99541.50
2023-04-24T10:51:54.146Z,99562.00
2023-04-24T10:54:35.054Z,99559.28
2023-04-24T10:57:20.289Z,99561.94
2023-04-24T10:59:48.296Z,99567.09
2023-04-24T11:02:19.394Z,99579.31
2023-04-24T11:04:46.404Z,99571.84
2023-04-24T11:07:13.311Z,99584.03
2023-04-24T11:09:43.769Z,99588.59
2023-04-24T11:12:12.116Z,99607.00
2023-04-24T11:14:57.433Z,99615.28
2023-04-24T11:17:39.232Z,99619.59
2023-04-24T11:20:26.818Z,99620.19
2023-04-24T11:22:56.060Z,99631.75
2023-04-24T11:25:26.695Z,99633.19
2023-04-24T11:28:04.535Z,99638.31
2023-04-24T11:30:32.614Z,99637.22
2023-04-24T11:33:04.413Z,99635.53
2023-04-24T11:35:36.753Z,99640.66
2023-04-24T11:38:19.318Z,99647.44
2023-04-24T11:40:50.645Z,99662.13
2023-04-24T11:43:19.818Z,99661.69
2023-04-24T11:45:49.751Z,99667.88
2023-04-24T11:48:22.621Z,99668.06
2023-04-24T11:50:49.926Z,99679.88
2023-04-24T11:53:16.294Z,99680.69
2023-04-24T11:55:42.687Z,99684.19
2023-04-24T11:58:09.049Z,99692.91
2023-04-24T12:00:35.606Z,99691.88
2023-04-24T12:03:12.892Z,99711.81
2023-04-24T12:05:40.603Z,99712.25
2023-04-24T12:08:07.535Z,99713.72
2023-04-24T12:10:35.561Z,99717.69
2023-04-24T12:15:29.551Z,99731.19
2023-04-24T12:17:57.065Z,99738.88
2023-04-24T12:20:31.981Z,99752.13
2023-04-24T12:23:00.450Z,99754.00
2023-04-24T12:25:32.056Z,99757.91
2023-04-24T12:28:04.121Z,99766.13
2023-04-24T12:30:32.555Z,99770.78
2023-04-24T12:33:01.251Z,99770.63
2023-04-24T12:35:34.232Z,99773.63
2023-04-24T12:38:13.324Z,99773.13
2023-04-24T12:40:39.945Z,99782.13
2023-04-24T12:43:20.051Z,99787.03
2023-04-24T12:45:49.831Z,99784.09
2023-04-24T12:48:16.377Z,99784.44
2023-04-24T12:50:46.110Z,99782.31
2023-04-24T12:53:13.772Z,99795.13
2023-04-24T12:55:40.263Z,99801.69
2023-04-24T12:58:06.720Z,99809.09
2023-04-24T13:00:33.794Z,99807.63
2023-04-24T13:03:00.473Z,99808.66
2023-04-24T13:05:27.133Z,99817.34
2023-04-24T13:07:53.490Z,99807.91
2023-04-24T13:10:20.058Z,99819.56
2023-04-24T13:12:47.301Z,99826.72
2023-04-24T13:15:14.247Z,99816.69
2023-04-24T13:17:41.046Z,99822.41
2023-04-24T13:20:07.999Z,99819.69
2023-04-24T13:22:34.357Z,99815.09
2023-04-24T13:25:02.189Z,99822.09
2023-04-24T13:27:28.563Z,99824.91
2023-04-24T13:29:54.996Z,99826.06
2023-04-24T13:32:21.534Z,99831.09
2023-04-24T13:34:48.009Z,99837.38
2023-04-24T13:37:14.414Z,99829.72
2023-04-24T13:39:42.254Z,99832.69
2023-04-24T13:42:08.976Z,99838.53
2023-04-24T13:44:35.373Z,99843.06
2023-04-24T13:47:02.098Z,99842.44
2023-04-24T13:49:29.856Z,99843.66
2023-04-24T13:51:57.063Z,99844.41
2023-04-24T13:54:26.490Z,99828.88
2023-04-24T13:56:53.348Z,99848.47
2023-04-24T13:59:21.532Z,99844.69
2023-04-24T14:01:48.628Z,99855.22
2023-04-24T14:04:15.621Z,99848.09
2023-04-24T14:06:42.088Z,99858.59
2023-04-24T14:09:08.952Z,99861.66
2023-04-24T14:11:35.989Z,99858.53
2023-04-24T14:14:02.356Z,99856.03
2023-04-24T14:16:29.771Z,99861.22
2023-04-24T14:18:57.052Z,99870.31
2023-04-24T14:21:23.490Z,99873.00
2023-04-24T14:23:49.922Z,99857.72
2023-04-24T14:26:16.311Z,99861.41
2023-04-24T14:28:42.847Z,99864.09
2023-04-24T14:31:10.398Z,99863.44
2023-04-24T14:33:36.992Z,99856.41
2023-04-24T14:36:05.298Z,99857.63
2023-04-24T14:38:32.467Z,99865.88
2023-04-24T14:41:07.080Z,99871.47
2023-04-24T14:43:36.089Z,99875.16
2023-04-24T14:46:03.102Z,99878.88
2023-04-24T14:48:29.455Z,99879.72
2023-04-24T14:50:55.859Z,99889.47
2023-04-24T14:53:22.248Z,99891.13
2023-04-24T14:55:48.612Z,99884.53
2023-04-24T14:58:15.007Z,99891.78
2023-04-24T15:00:41.559Z,99901.50
2023-04-24T15:03:08.354Z,99898.00
2023-04-24T15:05:35.042Z,99918.84
2023-04-24T15:08:01.971Z,99914.69
2023-04-24T15:10:30.193Z,99917.97
2023-04-24T15:12:56.646Z,99920.38
2023-04-24T15:15:23.158Z,99917.44
2023-04-24T15:17:49.572Z,99932.25
2023-04-24T15:20:16.240Z,99921.88
2023-04-24T15:22:42.712Z,99921.88
2023-04-24T15:25:09.312Z,99923.38
2023-04-24T15:27:46.547Z,99933.56
2023-04-24T15:30:13.329Z,99928.63
2023-04-24T15:32:40.017Z,99928.06
2023-04-24T15:35:09.778Z,99924.63
2023-04-24T15:37:37.563Z,99955.78
2023-04-24T15:40:06.516Z,99951.94
2023-04-24T15:42:33.292Z,99937.72
2023-04-24T15:44:59.770Z,99934.09
2023-04-24T15:47:26.947Z,99949.50
2023-04-24T15:49:54.468Z,99943.34
2023-04-24T15:52:21.403Z,99961.63
2023-04-24T15:54:47.869Z,99955.84
2023-04-24T15:57:14.544Z,99948.41
2023-04-24T15:59:41.093Z,99952.75
2023-04-24T16:02:10.497Z,99958.34
2023-04-24T16:04:37.597Z,99966.16
2023-04-24T16:07:04.109Z,99964.44
2023-04-24T16:09:30.481Z,99963.50
2023-04-24T16:11:56.933Z,99961.78
2023-04-24T16:14:23.333Z,99964.19
2023-04-24T16:16:50.630Z,99957.53
2023-04-24T16:19:16.977Z,99981.09
2023-04-24T16:21:43.412Z,99973.22
2023-04-24T16:24:09.757Z,99976.94
2023-04-24T16:26:36.147Z,99977.94
2023-04-24T16:29:02.527Z,99968.22
2023-04-24T16:31:29.003Z,99975.44
2023-04-24T16:33:55.474Z,99976.09
2023-04-24T16:36:22.034Z,99977.59
2023-04-24T16:38:51.330Z,99979.91
2023-04-24T16:41:18.373Z,99982.84
2023-04-24T16:43:44.708Z,99979.22
2023-04-24T16:46:11.438Z,99987.19
2023-04-24T16:48:37.842Z,99983.72
2023-04-24T16:51:04.233Z,99990.41
2023-04-24T16:53:30.703Z,99988.16
2023-04-24T16:55:57.102Z,99996.06
2023-04-24T16:58:23.549Z,99994.81
2023-04-24T17:00:50.529Z,99997.75
2023-04-24T17:03:17.134Z,99991.25
2023-04-24T17:05:43.622Z,99976.06
2023-04-24T17:08:10.327Z,99969.19
2023-04-24T17:10:36.890Z,99975.56
2023-04-24T17:13:03.253Z,99981.94
2023-04-24T17:15:29.701Z,99968.78
2023-04-24T17:17:57.458Z,99979.25
2023-04-24T17:20:24.333Z,99985.53
2023-04-24T17:22:51.422Z,99975.75
2023-04-24T17:25:18.194Z,99981.75
2023-04-24T17:27:45.164Z,99991.63
2023-04-24T17:30:12.272Z,99986.16
2023-04-24T17:32:38.691Z,99996.00
2023-04-24T17:35:05.752Z,99989.69
2023-04-24T17:37:33.292Z,99984.63
2023-04-24T17:39:59.605Z,99981.91
2023-04-24T17:42:26.285Z,99987.03
2023-04-24T17:44:52.746Z,99988.66
2023-04-24T17:47:20.911Z,99980.66
2023-04-24T17:49:47.409Z,99998.84
2023-04-24T17:52:14.411Z,99980.47
2023-04-24T17:54:40.770Z,99987.38
2023-04-24T17:57:07.276Z,99986.84
2023-04-24T17:59:33.669Z,99993.38
2023-04-24T18:02:00.129Z,100001.59
2023-04-24T18:04:26.820Z,100001.50
2023-04-24T18:06:53.326Z,100002.03
2023-04-24T18:09:20.864Z,99988.97
2023-04-24T18:11:49.084Z,99995.78
2023-04-24T18:14:15.507Z,100006.06
2023-04-24T18:16:41.880Z,100011.16
2023-04-24T18:19:08.209Z,100004.69
2023-04-24T18:21:34.617Z,100008.28
2023-04-24T18:24:00.984Z,100006.53
2023-04-24T18:26:27.700Z,100012.88
2023-04-24T18:28:54.038Z,100008.56
2023-04-24T18:31:20.504Z,100013.22
2023-04-24T18:33:47.008Z,100020.50
2023-04-24T18:36:13.364Z,100022.44
2023-04-24T18:38:39.905Z,100025.34
2023-04-24T18:41:06.386Z,100019.88
2023-04-24T18:43:32.755Z,100021.63
2023-04-24T18:45:59.208Z,100025.03
2023-04-24T18:48:28.563Z,100036.31
2023-04-24T18:50:55.016Z,100034.16
2023-04-24T18:53:21.445Z,100040.72
2023-04-24T18:55:47.768Z,100039.22
2023-04-24T18:58:14.151Z,100042.28
2023-04-24T19:00:41.243Z,100043.31
2023-04-24T19:03:08.688Z,100055.06
2023-04-24T19:05:35.433Z,100048.00
2023-04-24T19:08:01.828Z,100061.44
2023-04-24T19:10:28.989Z,100059.78
2023-04-24T19:12:56.862Z,100056.91
2023-04-24T19:15:26.192Z,100058.75
2023-04-24T19:17:52.669Z,100061.81
2023-04-24T19:20:19.639Z,100062.84
2023-04-24T19:22:46.787Z,100077.25
2023-04-24T19:25:13.796Z,100075.75
2023-04-24T19:27:40.282Z,100075.94
2023-04-24T19:30:07.338Z,100079.81
2023-04-24T19:32:33.862Z,100082.69
2023-04-24T19:35:00.659Z,100088.41
2023-04-24T19:37:27.252Z,100088.56
2023-04-24T19:39:53.711Z,100090.78
2023-04-24T19:42:28.427Z,100084.06
2023-04-24T19:45:02.652Z,100090.63
2023-04-24T19:47:29.031Z,100088.50
2023-04-24T19:49:55.428Z,100090.69
2023-04-24T19:52:21.810Z,100090.03
2023-04-24T19:54:48.966Z,100089.38
2023-04-24T19:57:15.293Z,100081.47
2023-04-24T19:59:41.659Z,100086.84
2023-04-24T20:02:10.181Z,100081.47
2023-04-24T20:04:36.842Z,100087.88
2023-04-24T20:07:03.473Z,100078.78
2023-04-24T20:09:32.497Z,100081.31
2023-04-24T20:12:00.002Z,100085.84
2023-04-24T20:14:26.350Z,100081.13
2023-04-24T20:16:54.211Z,100094.53
2023-04-24T20:19:21.941Z,100091.88
2023-04-24T20:21:48.427Z,100094.53
2023-04-24T20:24:16.080Z,100087.50
2023-04-24T20:26:43.045Z,100095.56
2023-04-24T20:29:09.418Z,100090.38
2023-04-24T20:31:36.045Z,100094.91
2023-04-24T20:34:02.917Z,100103.47
2023-04-24T20:36:29.260Z,100092.09
2023-04-24T20:38:57.018Z,100106.50
2023-04-24T20:41:24.716Z,100100.66
2023-04-24T20:43:51.145Z,100099.16
2023-04-24T20:46:17.513Z,100099.31
2023-04-24T20:48:44.033Z,100107.38
2023-04-24T20:51:10.494Z,100096.81
2023-04-24T20:53:36.810Z,100096.81
2023-04-24T20:56:03.338Z,100099.50
2023-04-24T20:58:29.893Z,100093.31
2023-04-24T21:00:56.275Z,100101.38
2023-04-24T21:03:22.731Z,100096.16
2023-04-24T21:05:49.129Z,100099.00
2023-04-24T21:08:16.360Z,100107.06
2023-04-24T21:10:42.731Z,100098.16
2023-04-24T21:13:09.121Z,100108.91
2023-04-24T21:15:35.556Z,100105.38
2023-04-24T21:18:02.835Z,100101.88
2023-04-24T21:20:29.356Z,100100.03
2023-04-24T21:22:55.778Z,100090.31
2023-04-24T21:25:22.466Z,100099.34
2023-04-24T21:27:49.123Z,100098.53
2023-04-24T21:30:15.602Z,100090.63
2023-04-24T21:32:42.124Z,100099.69
2023-04-24T21:35:08.941Z,100088.31
2023-04-24T21:37:36.207Z,100085.97
2023-04-24T21:40:04.674Z,100085.31
2023-04-24T21:42:31.498Z,100096.22
2023-04-24T21:44:58.052Z,100087.50
2023-04-24T21:47:25.053Z,100093.88
2023-04-24T21:49:51.356Z,100096.56
2023-04-24T21:52:17.666Z,100093.88
2023-04-24T21:54:44.043Z,100086.66
2023-04-24T21:57:10.499Z,100099.91
2023-04-24T21:59:36.908Z,100094.53
2023-04-24T22:02:03.532Z,100091.69
2023-04-24T22:04:30.084Z,100090.84
2023-04-24T22:06:56.642Z,100100.75
2023-04-24T22:09:23.134Z,100098.06
2023-04-24T22:11:49.568Z,100096.38
2023-04-24T22:14:17.113Z,100095.38
2023-04-24T22:16:43.963Z,100101.75
2023-04-24T22:19:10.459Z,100099.06
2023-04-24T22:21:36.815Z,100099.06
2023-04-24T22:24:03.486Z,100091.22
2023-04-24T22:26:29.826Z,100088.69
2023-04-24T22:28:56.432Z,100084.16
2023-04-24T22:31:23.469Z,100083.31
2023-04-24T22:33:50.390Z,100082.50
2023-04-24T22:36:17.048Z,100089.03
2023-04-24T22:38:43.445Z,100089.03
2023-04-24T22:41:09.936Z,100090.03
2023-04-24T22:43:36.611Z,100094.75
2023-04-24T22:46:04.290Z,100091.03
2023-04-24T22:48:30.760Z,100089.38
2023-04-24T22:50:57.160Z,100091.22
2023-04-24T22:53:23.606Z,100092.22
2023-04-24T22:55:50.197Z,100084.19
2023-04-24T22:58:16.719Z,100087.03
2023-04-24T23:00:43.897Z,100086.38
2023-04-24T23:03:10.924Z,100084.69
2023-04-24T23:05:37.445Z,100088.38
2023-04-24T23:08:03.845Z,100085.03
2023-04-24T23:10:30.542Z,100077.19
2023-04-24T23:12:56.925Z,100080.84
2023-04-24T23:15:23.275Z,100083.53
2023-04-24T23:17:49.796Z,100086.22
2023-04-24T23:20:16.549Z,100083.72
2023-04-24T23:22:42.928Z,100077.50
2023-04-24T23:25:10.744Z,100081.19
2023-04-24T23:27:37.411Z,100081.19
2023-04-24T23:30:06.516Z,100096.44
2023-04-24T23:32:32.983Z,100089.41
2023-04-24T23:34:59.409Z,100094.94
2023-04-24T23:37:26.035Z,100086.06
2023-04-24T23:39:52.943Z,100098.81
2023-04-24T23:42:19.353Z,100088.09
2023-04-24T23:44:45.707Z,100092.63
2023-04-24T23:47:12.118Z,100089.06
2023-04-24T23:49:38.464Z,100091.75
2023-04-24T23:52:05.028Z,100085.53
2023-04-24T23:54:31.466Z,100081.03
2023-04-24T23:56:57.943Z,100088.22
2023-04-24T23:59:24.325Z,100084.69
